Time;durP1;ratioP1;P1;durP2;ratioP2;P2;SDS_P1;SDS_P2;PMS_P1;PMS_P2;Temp;Humidity;BMP_temperature;BMP_pressure;BME280_temperature;BME280_humidity;BME280_pressure;Samples;Min_cycle;Max_cycle;Signal;HPM_P1;HPM_P2
2023/09/04 00:01:14;;;;;;;20.38;8.85;;;;;;;14.45;100.00;102846.94;6056416;19;20302;-71
2023/09/04 00:03:20;;;;;;;24.58;10.60;;;;;;;14.41;100.00;102844.44;6053609;19;20196;-73
2023/09/04 00:05:28;;;;;;;23.58;9.38;;;;;;;14.41;100.00;102840.00;6055173;19;20503;-73
2023/09/04 00:07:33;;;;;;;25.05;8.30;;;;;;;14.37;100.00;102840.97;6050314;19;20003;-71
2023/09/04 00:09:39;;;;;;;24.77;9.98;;;;;;;14.36;100.00;102833.09;6060436;19;20010;-71
2023/09/04 00:11:44;;;;;;;24.88;9.98;;;;;;;14.33;100.00;102835.81;6056652;19;20362;-72
2023/09/04 00:13:50;;;;;;;25.23;9.40;;;;;;;14.32;100.00;102832.28;6055345;19;20866;-72
2023/09/04 00:15:56;;;;;;;25.60;10.52;;;;;;;14.26;100.00;102824.50;6062138;19;20192;-72
2023/09/04 00:18:02;;;;;;;23.67;10.63;;;;;;;14.28;100.00;102834.13;6056286;19;20299;-71
2023/09/04 00:20:12;;;;;;;22.98;10.40;;;;;;;14.24;100.00;102843.06;6052563;19;20011;-72
2023/09/04 00:22:20;;;;;;;25.75;9.68;;;;;;;14.23;100.00;102832.50;6060599;19;20023;-74
2023/09/04 00:24:25;;;;;;;20.80;9.40;;;;;;;14.19;100.00;102838.75;6056866;19;20984;-72
2023/09/04 00:26:31;;;;;;;20.63;9.52;;;;;;;14.16;100.00;102836.19;6058319;19;20010;-72
2023/09/04 00:28:36;;;;;;;24.00;9.38;;;;;;;14.13;100.00;102834.50;6048196;19;20397;-72
2023/09/04 00:30:41;;;;;;;25.17;9.77;;;;;;;14.10;100.00;102837.22;6055166;19;20072;-71
2023/09/04 00:32:46;;;;;;;24.20;9.27;;;;;;;14.08;100.00;102832.88;6055320;19;20443;-71
2023/09/04 00:34:52;;;;;;;19.50;8.35;;;;;;;14.05;100.00;102832.03;6054509;19;20512;-72
2023/09/04 00:36:59;;;;;;;23.75;9.32;;;;;;;14.04;100.00;102838.22;6047021;19;20562;-72
2023/09/04 00:39:07;;;;;;;21.95;9.55;;;;;;;14.03;100.00;102836.50;6050469;19;20742;-72
2023/09/04 00:41:13;;;;;;;28.27;10.20;;;;;;;14.02;100.00;102839.16;6057733;19;20015;-72
2023/09/04 00:43:18;;;;;;;26.45;10.60;;;;;;;13.99;100.00;102837.47;6050816;19;20014;-71
2023/09/04 00:45:23;;;;;;;24.83;9.15;;;;;;;13.97;100.00;102833.97;6052416;19;20317;-72
2023/09/04 00:47:27;;;;;;;27.45;10.77;;;;;;;13.96;100.00;102844.59;6051218;19;20014;-72
2023/09/04 00:49:36;;;;;;;23.33;9.38;;;;;;;13.92;100.00;102843.78;6047677;19;20482;-71
2023/09/04 00:51:45;;;;;;;25.13;10.90;;;;;;;13.91;100.00;102847.34;6053744;19;20447;-71
2023/09/04 00:53:51;;;;;;;21.30;9.10;;;;;;;13.90;100.00;102834.16;6043908;19;20395;-72
2023/09/04 00:56:00;;;;;;;22.73;10.68;;;;;;;13.88;100.00;102833.34;6051775;19;20023;-71
2023/09/04 00:58:08;;;;;;;22.60;10.93;;;;;;;13.88;100.00;102828.06;6055044;19;20381;-72
2023/09/04 01:00:19;;;;;;;27.77;11.27;;;;;;;13.88;100.00;102828.06;6051439;19;20681;-72
2023/09/04 01:02:25;;;;;;;23.73;9.35;;;;;;;13.88;100.00;102831.56;6054449;19;20007;-72
2023/09/04 01:04:31;;;;;;;24.42;9.88;;;;;;;13.89;100.00;102824.50;6056217;19;20309;-73
2023/09/04 01:06:36;;;;;;;21.80;10.00;;;;;;;13.86;100.00;102825.44;6055604;19;20251;-73
2023/09/04 01:08:42;;;;;;;24.15;9.88;;;;;;;13.83;100.00;102822.88;6051927;19;20074;-73
2023/09/04 01:10:57;;;;;;;24.02;10.88;;;;;;;13.79;100.00;102827.31;6056703;19;20010;-72
2023/09/04 01:13:10;;;;;;;26.02;11.02;;;;;;;13.71;100.00;102834.56;6064786;19;20030;-73
2023/09/04 01:15:16;;;;;;;28.63;11.18;;;;;;;13.69;100.00;102825.81;6054231;19;20062;-72
2023/09/04 01:17:19;;;;;;;23.67;10.05;;;;;;;13.70;100.00;102826.69;6062409;19;20504;-71
2023/09/04 01:19:25;;;;;;;26.45;11.50;;;;;;;13.68;100.00;102828.47;6062443;19;20319;-74
2023/09/04 01:21:37;;;;;;;27.67;10.75;;;;;;;13.67;100.00;102827.63;6058285;19;20010;-73
2023/09/04 01:23:43;;;;;;;22.10;9.57;;;;;;;13.67;100.00;102826.75;6052314;19;20665;-74
2023/09/04 01:25:55;;;;;;;24.95;9.52;;;;;;;13.68;100.00;102828.47;6058766;19;20042;-73
2023/09/04 01:28:10;;;;;;;24.48;10.43;;;;;;;13.62;100.00;102829.50;6058250;19;20293;-73
2023/09/04 01:30:26;;;;;;;22.88;10.25;;;;;;;13.61;100.00;102827.72;6052484;19;20011;-72
2023/09/04 01:32:38;;;;;;;24.15;9.90;;;;;;;13.59;100.00;102825.13;6058496;19;19999;-71
2023/09/04 01:34:49;;;;;;;24.00;10.15;;;;;;;13.60;100.00;102826.00;6056535;19;20021;-72
2023/09/04 01:37:01;;;;;;;24.35;9.18;;;;;;;13.60;100.00;102818.06;6057518;19;20247;-71
2023/09/04 01:39:09;;;;;;;21.52;9.60;;;;;;;13.61;100.00;102817.16;6057121;19;20010;-73
2023/09/04 01:41:11;;;;;;;21.90;9.82;;;;;;;13.57;100.00;102819.00;6059458;19;20169;-74
2023/09/04 01:43:17;;;;;;;22.75;9.93;;;;;;;13.56;100.00;102819.03;6058628;19;20247;-72
2023/09/04 01:45:22;;;;;;;21.85;10.25;;;;;;;13.53;100.00;102817.34;6058375;19;20524;-71
2023/09/04 01:47:30;;;;;;;21.75;10.02;;;;;;;13.57;100.00;102819.00;6057496;19;20393;-73
2023/09/04 01:49:36;;;;;;;20.27;9.02;;;;;;;13.58;100.00;102810.16;6054008;19;20014;-72
2023/09/04 01:51:41;;;;;;;20.67;10.27;;;;;;;13.60;100.00;102804.88;6054334;19;20278;-73
2023/09/04 01:53:49;;;;;;;23.25;9.82;;;;;;;13.57;100.00;102820.78;6066744;19;20024;-73
2023/09/04 01:55:54;;;;;;;20.20;9.35;;;;;;;13.53;100.00;102819.09;6055057;19;20521;-73
2023/09/04 01:58:00;;;;;;;19.90;9.23;;;;;;;13.54;100.00;102820.84;6060796;19;20051;-72
2023/09/04 02:00:08;;;;;;;21.73;10.15;;;;;;;13.62;100.00;102818.91;6055389;19;20011;-72
2023/09/04 02:02:13;;;;;;;19.63;9.00;;;;;;;13.69;100.00;102822.28;6055588;19;20006;-72
2023/09/04 02:04:18;;;;;;;21.02;9.88;;;;;;;13.70;100.00;102819.63;6057450;19;20226;-72
2023/09/04 02:06:21;;;;;;;19.70;9.32;;;;;;;13.71;100.00;102818.69;6058542;19;20197;-72
2023/09/04 02:08:29;;;;;;;24.05;10.90;;;;;;;13.81;100.00;102824.66;6049768;19;20014;-72
2023/09/04 02:10:38;;;;;;;23.33;9.43;;;;;;;13.81;100.00;102812.31;6054722;19;20663;-72
2023/09/04 02:12:43;;;;;;;22.92;10.55;;;;;;;13.84;100.00;102814.03;6051699;19;20357;-72
2023/09/04 02:14:48;;;;;;;19.77;9.48;;;;;;;13.82;100.00;102818.47;6063099;19;20328;-71
2023/09/04 02:16:55;;;;;;;15.57;8.82;;;;;;;13.83;100.00;102817.59;6029995;19;20215;-71
2023/09/04 02:19:01;;;;;;;17.77;8.93;;;;;;;13.76;100.00;102805.41;6054449;19;20303;-73
2023/09/04 02:21:06;;;;;;;19.63;9.07;;;;;;;13.73;100.00;102805.47;6054493;19;20003;-74
2023/09/04 02:23:12;;;;;;;15.77;8.32;;;;;;;13.71;100.00;102796.69;6050464;19;20003;-73
2023/09/04 02:25:17;;;;;;;18.85;8.70;;;;;;;13.72;100.00;102795.81;6046385;19;20046;-73
2023/09/04 02:27:25;;;;;;;19.30;9.20;;;;;;;13.63;100.00;102798.66;6058376;19;20173;-71
2023/09/04 02:29:31;;;;;;;15.07;8.55;;;;;;;13.59;100.00;102803.16;6046434;19;20002;-70
2023/09/04 02:31:36;;;;;;;19.42;9.15;;;;;;;13.58;100.00;102810.16;6044099;19;20040;-73
2023/09/04 02:33:39;;;;;;;19.45;9.48;;;;;;;13.61;100.00;102814.53;6053234;19;20207;-73
2023/09/04 02:35:45;;;;;;;15.93;7.97;;;;;;;13.63;100.00;102804.78;6048304;19;20226;-72
2023/09/04 02:37:47;;;;;;;19.38;8.98;;;;;;;13.59;100.00;102798.72;6050262;19;20006;-72
2023/09/04 02:39:53;;;;;;;17.77;8.27;;;;;;;13.54;100.00;102795.31;6042845;19;20101;-73
2023/09/04 02:41:59;;;;;;;15.45;8.27;;;;;;;13.52;100.00;102797.09;6049297;19;20323;-72
2023/09/04 02:44:07;;;;;;;17.02;7.10;;;;;;;13.50;100.00;102796.25;6047625;19;20031;-72
2023/09/04 02:46:13;;;;;;;16.90;8.20;;;;;;;13.50;100.00;102783.06;6047178;19;20034;-72
2023/09/04 02:48:18;;;;;;;17.83;8.60;;;;;;;13.49;100.00;102786.63;6060417;19;20359;-72
2023/09/04 02:50:24;;;;;;;19.52;8.55;;;;;;;13.48;100.00;102773.44;6056758;19;20301;-72
2023/09/04 02:52:32;;;;;;;15.40;7.97;;;;;;;13.45;100.00;102774.34;6049906;19;20093;-74
2023/09/04 02:54:37;;;;;;;17.42;7.88;;;;;;;13.41;100.00;102771.84;6050844;19;20050;-72
2023/09/04 02:56:42;;;;;;;18.20;7.60;;;;;;;13.28;100.00;102768.59;6055298;19;20652;-71
2023/09/04 02:58:45;;;;;;;12.95;6.60;;;;;;;13.24;100.00;102770.38;6054810;19;20013;-70
2023/09/04 03:00:53;;;;;;;12.20;6.53;;;;;;;13.22;100.00;102768.66;6050569;19;20015;-71
2023/09/04 03:02:56;;;;;;;13.43;7.15;;;;;;;13.17;100.00;102769.63;6053075;19;20479;-72
2023/09/04 03:05:02;;;;;;;12.75;7.30;;;;;;;13.12;100.00;102768.88;6053834;19;20031;-72
2023/09/04 03:07:07;;;;;;;17.58;8.48;;;;;;;13.06;100.00;102771.63;6052863;19;20074;-73
2023/09/04 03:09:15;;;;;;;13.38;6.60;;;;;;;13.05;100.00;102774.28;6053162;19;22216;-73
2023/09/04 03:11:21;;;;;;;12.73;6.65;;;;;;;13.00;100.00;102771.75;6050105;19;20019;-72
2023/09/04 03:13:26;;;;;;;14.13;6.80;;;;;;;13.00;100.00;102766.47;6046780;19;20271;-71
2023/09/04 03:15:32;;;;;;;13.60;7.35;;;;;;;13.01;100.00;102762.94;6044110;19;20319;-71
2023/09/04 03:17:42;;;;;;;13.55;7.50;;;;;;;13.04;100.00;102759.38;6050800;19;20261;-72
2023/09/04 03:19:48;;;;;;;14.23;6.43;;;;;;;13.06;100.00;102761.09;6049810;19;20781;-72
2023/09/04 03:21:54;;;;;;;13.82;6.78;;;;;;;13.13;100.00;102761.81;6046974;19;20293;-71
2023/09/04 03:24:00;;;;;;;15.57;7.47;;;;;;;13.09;100.00;102755.72;6052857;19;20285;-74
2023/09/04 03:26:05;;;;;;;14.65;7.13;;;;;;;13.08;100.00;102753.13;6048807;19;20435;-71
2023/09/04 03:28:11;;;;;;;13.27;7.10;;;;;;;13.01;100.00;102762.94;6057400;19;20018;-71
2023/09/04 03:30:14;;;;;;;12.10;6.75;;;;;;;12.92;100.00;102758.69;6056110;19;20003;-73
2023/09/04 03:32:19;;;;;;;;;;;;;;;12.92;100.00;102761.31;6059726;19;20028;-71
2023/09/04 03:34:29;;;;;;;13.80;6.70;;;;;;;12.87;100.00;102759.69;6057836;19;20024;-71
2023/09/04 03:36:34;;;;;;;12.85;6.43;;;;;;;12.85;100.00;102758.84;6057119;19;20323;-71
2023/09/04 03:38:42;;;;;;;15.82;7.45;;;;;;;12.82;100.00;102758.91;6057404;19;20205;-73
2023/09/04 03:40:48;;;;;;;14.60;6.55;;;;;;;12.77;100.00;102766.94;6070656;19;20334;-72
2023/09/04 03:42:57;;;;;;;14.25;7.10;;;;;;;12.80;100.00;102756.31;6054073;19;20101;-73
2023/09/04 03:45:03;;;;;;;12.77;6.22;;;;;;;12.79;100.00;102746.63;6057686;19;20354;-73
2023/09/04 03:47:09;;;;;;;17.45;7.05;;;;;;;12.80;100.00;102744.91;6067080;19;20668;-73
2023/09/04 03:49:14;;;;;;;13.27;7.45;;;;;;;12.82;100.00;102740.44;6058063;19;20034;-73
2023/09/04 03:51:22;;;;;;;14.05;7.00;;;;;;;12.79;100.00;102736.09;6057071;19;20499;-72
2023/09/04 03:53:28;;;;;;;13.18;7.03;;;;;;;12.77;100.00;102743.19;6051854;19;20021;-71
2023/09/04 03:55:37;;;;;;;15.70;7.78;;;;;;;12.70;100.00;102729.22;6062329;19;20027;-72
2023/09/04 03:57:51;;;;;;;12.77;6.53;;;;;;;12.67;100.00;102736.34;6062832;19;20018;-72
2023/09/04 03:59:59;;;;;;;12.50;7.00;;;;;;;12.73;100.00;102737.06;6066466;19;20014;-71
2023/09/04 04:02:04;;;;;;;13.85;7.15;;;;;;;12.69;100.00;102737.16;6063607;19;20503;-72
2023/09/04 04:04:09;;;;;;;14.50;6.95;;;;;;;12.68;100.00;102738.94;6060035;19;20635;-72
2023/09/04 04:06:15;;;;;;;11.73;7.38;;;;;;;12.64;100.00;102747.81;6073664;19;20317;-72
2023/09/04 04:08:23;;;;;;;11.38;5.93;;;;;;;12.64;100.00;102745.19;6053242;19;20070;-72
2023/09/04 04:10:31;;;;;;;12.18;6.75;;;;;;;12.64;100.00;102746.97;6061229;19;20357;-74
2023/09/04 04:12:37;;;;;;;13.55;6.72;;;;;;;12.63;100.00;102735.50;6061616;19;20047;-73
2023/09/04 04:14:42;;;;;;;15.43;7.65;;;;;;;12.64;100.00;102741.69;6061072;19;20010;-72
2023/09/04 04:16:47;;;;;;;13.23;7.10;;;;;;;12.63;100.00;102735.50;6062423;19;20050;-73
2023/09/04 04:18:53;;;;;;;12.73;6.95;;;;;;;12.67;100.00;102739.84;6060957;19;20002;-73
2023/09/04 04:20:59;;;;;;;13.05;7.03;;;;;;;12.70;100.00;102738.91;6057019;19;20343;-73
2023/09/04 04:23:04;;;;;;;16.40;7.80;;;;;;;12.72;100.00;102745.03;6059459;19;20503;-73
2023/09/04 04:25:13;;;;;;;13.82;7.40;;;;;;;12.77;100.00;102744.94;6056068;19;20765;-72
2023/09/04 04:27:19;;;;;;;18.35;8.10;;;;;;;12.72;100.00;102739.75;6064440;19;20110;-73
2023/09/04 04:29:24;;;;;;;18.48;8.27;;;;;;;12.70;100.00;102745.06;6065848;19;20014;-75
2023/09/04 04:31:31;;;;;;;16.10;8.75;;;;;;;12.65;100.00;102744.28;6066781;19;20136;-73
2023/09/04 04:33:35;;;;;;;16.73;7.57;;;;;;;12.66;100.00;102745.13;6055074;19;20295;-70
2023/09/04 04:35:42;;;;;;;15.10;7.13;;;;;;;12.65;100.00;102749.53;6060791;19;20325;-73
2023/09/04 04:37:47;;;;;;;16.63;7.57;;;;;;;12.58;100.00;102745.28;6062130;19;20006;-73
2023/09/04 04:39:54;;;;;;;16.02;7.72;;;;;;;12.53;100.00;102749.75;6061195;19;20690;-74
2023/09/04 04:42:02;;;;;;;19.73;8.05;;;;;;;12.54;100.00;102748.88;6055221;19;20514;-71
2023/09/04 04:44:08;;;;;;;17.83;9.23;;;;;;;12.54;100.00;102750.66;6070166;19;20010;-71
2023/09/04 04:46:15;;;;;;;13.50;7.20;;;;;;;12.52;100.00;102750.66;6065923;19;20010;-73
2023/09/04 04:48:20;;;;;;;13.20;7.60;;;;;;;12.48;100.00;102754.25;6070457;19;20007;-73
2023/09/04 04:50:29;;;;;;;15.02;7.22;;;;;;;12.45;100.00;102756.94;6068421;19;20039;-73
2023/09/04 04:52:31;;;;;;;15.02;7.55;;;;;;;12.43;100.00;102758.75;6062664;19;20686;-72
2023/09/04 04:54:38;;;;;;;18.95;8.27;;;;;;;12.41;100.00;102750.00;6066196;19;20513;-72
2023/09/04 04:56:43;;;;;;;16.42;7.90;;;;;;;12.44;100.00;102747.31;6063367;19;20218;-71
2023/09/04 04:58:51;;;;;;;18.45;7.93;;;;;;;12.40;100.00;102750.88;6064720;19;20038;-73
2023/09/04 05:00:58;;;;;;;15.18;7.28;;;;;;;12.39;100.00;102750.00;6064441;19;20014;-71
2023/09/04 05:03:03;;;;;;;14.90;7.20;;;;;;;12.37;100.00;102748.31;6063404;19;20019;-71
2023/09/04 05:05:15;;;;;;;15.52;8.13;;;;;;;12.36;100.00;102750.06;6065376;19;20006;-73
2023/09/04 05:07:22;;;;;;;13.80;6.97;;;;;;;12.39;100.00;102747.38;6065764;19;20094;-73
2023/09/04 05:09:28;;;;;;;14.20;7.63;;;;;;;12.36;100.00;102741.31;6063904;19;20533;-74
2023/09/04 05:11:34;;;;;;;16.10;7.45;;;;;;;12.36;100.00;102747.44;6056845;19;20437;-72
2023/09/04 05:13:43;;;;;;;16.73;7.63;;;;;;;12.35;100.00;102744.81;6059454;19;20033;-73
2023/09/04 05:15:51;;;;;;;13.45;7.07;;;;;;;12.36;100.00;102741.31;6062817;19;20498;-71
2023/09/04 05:17:56;;;;;;;11.93;6.20;;;;;;;12.36;100.00;102744.81;6056507;19;20676;-73
2023/09/04 05:20:03;;;;;;;14.20;7.25;;;;;;;12.33;100.00;102747.50;6050633;19;20018;-73
2023/09/04 05:22:09;;;;;;;13.32;7.32;;;;;;;12.38;100.00;102750.06;6057293;19;20089;-73
2023/09/04 05:24:17;;;;;;;14.70;8.05;;;;;;;12.41;100.00;102742.94;6054723;19;20006;-72
2023/09/04 05:26:22;;;;;;;14.43;6.72;;;;;;;12.43;100.00;102746.44;6055217;19;20404;-73
2023/09/04 05:28:28;;;;;;;15.75;7.43;;;;;;;12.51;100.00;102747.16;6054765;19;20307;-71
2023/09/04 05:30:35;;;;;;;16.15;7.50;;;;;;;12.60;100.00;102745.25;6060164;19;20014;-72
2023/09/04 05:32:43;;;;;;;13.82;7.25;;;;;;;12.68;100.00;102748.63;6052530;19;20010;-71
2023/09/04 05:34:51;;;;;;;15.50;8.05;;;;;;;12.82;100.00;102745.72;6055463;19;20495;-72
2023/09/04 05:37:00;;;;;;;13.27;7.80;;;;;;;12.96;100.00;102747.19;6054705;19;20254;-72
2023/09/04 05:39:06;;;;;;;17.02;9.45;;;;;;;13.12;100.00;102736.31;6052330;19;20027;-74
2023/09/04 05:41:11;;;;;;;18.17;9.80;;;;;;;13.25;100.00;102739.59;6045134;19;20797;-73
2023/09/04 05:43:17;;;;;;;19.90;10.52;;;;;;;13.36;100.00;102740.25;6048921;19;20541;-73
2023/09/04 05:45:22;;;;;;;15.68;9.48;;;;;;;13.51;100.00;102737.28;6049086;19;20255;-73
2023/09/04 05:47:27;;;;;;;17.13;9.77;;;;;;;13.69;100.00;102730.72;6048881;19;20151;-73
2023/09/04 05:49:36;;;;;;;19.42;10.43;;;;;;;13.80;100.00;102733.09;6040774;19;20014;-72
2023/09/04 05:51:41;;;;;;;18.38;10.35;;;;;;;13.86;100.00;102727.66;6046067;19;20046;-73
2023/09/04 05:53:47;;;;;;;18.20;9.55;;;;;;;13.91;100.00;102731.06;6056162;19;20544;-72
2023/09/04 05:56:09;;;;;;;18.88;9.55;;;;;;;14.01;100.00;102729.94;6048309;19;20262;-74
2023/09/04 05:58:14;;;;;;;20.40;10.40;;;;;;;14.14;100.00;102726.94;6050325;19;20067;-72
2023/09/04 06:00:21;;;;;;;17.33;9.20;;;;;;;14.32;100.00;102729.13;6050448;19;20563;-73
2023/09/04 06:02:29;;;;;;;17.52;8.25;;;;;;;14.47;100.00;102725.22;6050015;19;20247;-73
2023/09/04 06:04:38;;;;;;;17.20;9.23;;;;;;;14.59;100.00;102732.00;6053737;19;20480;-73
2023/09/04 06:06:43;;;;;;;18.55;9.40;;;;;;;14.65;100.00;102731.84;6051317;19;20077;-73
2023/09/04 06:08:48;;;;;;;16.75;9.27;;;;;;;14.75;100.00;102725.38;6055083;19;20042;-73
2023/09/04 06:10:54;;;;;;;21.48;10.98;;;;;;;14.82;100.00;102732.22;6055002;19;20507;-73
2023/09/04 06:13:00;;;;;;;17.17;10.10;;;;;;;14.93;100.00;102732.81;6053624;19;20550;-72
2023/09/04 06:15:05;;;;;;;18.25;10.13;;;;;;;15.01;100.00;102731.69;6054270;19;20300;-72
2023/09/04 06:17:12;;;;;;;18.15;9.25;;;;;;;15.11;100.00;102733.16;6054313;19;20392;-72
2023/09/04 06:19:17;;;;;;;18.42;10.60;;;;;;;15.13;100.00;102720.75;6058206;19;20095;-73
2023/09/04 06:21:25;;;;;;;16.73;9.75;;;;;;;15.18;100.00;102726.78;6058298;19;20015;-71
2023/09/04 06:23:32;;;;;;;17.17;9.95;;;;;;;15.27;100.00;102721.22;6056362;19;20003;-73
2023/09/04 06:25:39;;;;;;;16.30;8.93;;;;;;;15.40;100.00;102729.63;6054265;19;20007;-72
2023/09/04 06:27:45;;;;;;;17.80;10.15;;;;;;;15.57;100.00;102723.84;6060764;19;21309;-72
2023/09/04 06:29:52;;;;;;;17.05;9.60;;;;;;;15.75;100.00;102719.78;6053704;19;20017;-71
2023/09/04 06:32:02;;;;;;;19.77;10.68;;;;;;;15.91;100.00;102722.78;6054207;19;20131;-71
2023/09/04 06:34:07;;;;;;;17.15;9.02;;;;;;;16.02;100.00;102715.34;6052879;19;20483;-71
2023/09/04 06:36:15;;;;;;;20.60;9.77;;;;;;;16.03;98.86;102719.72;6056596;19;20208;-72
2023/09/04 06:38:21;;;;;;;15.50;8.90;;;;;;;16.16;98.58;102714.88;6054301;19;20471;-71
2023/09/04 06:40:30;;;;;;;19.75;9.65;;;;;;;16.17;98.61;102720.13;6058558;19;20653;-71
2023/09/04 06:42:35;;;;;;;16.98;9.68;;;;;;;16.29;98.21;102717.97;6061085;19;20466;-71
2023/09/04 06:44:40;;;;;;;19.55;10.35;;;;;;;16.40;97.95;102706.09;6060586;19;20298;-73
2023/09/04 06:46:45;;;;;;;18.90;10.68;;;;;;;16.38;97.61;102712.38;6056753;19;20082;-72
2023/09/04 06:48:51;;;;;;;21.40;10.48;;;;;;;16.48;97.20;102712.88;6059010;19;20194;-71
2023/09/04 06:50:59;;;;;;;17.85;10.88;;;;;;;16.59;96.48;102716.91;6060253;19;20309;-72
2023/09/04 06:53:05;;;;;;;17.75;10.77;;;;;;;16.68;96.21;102719.22;6055374;19;20326;-73
2023/09/04 06:55:13;;;;;;;19.73;11.40;;;;;;;16.76;95.14;102716.28;6066688;19;20018;-71
2023/09/04 06:57:18;;;;;;;20.30;10.63;;;;;;;16.93;94.21;102713.06;6055028;19;20452;-71
2023/09/04 06:59:25;;;;;;;20.90;11.40;;;;;;;17.06;93.23;102714.31;6047318;19;20011;-71
2023/09/04 07:01:30;;;;;;;21.73;10.57;;;;;;;17.26;91.96;102716.19;6051093;19;20042;-73
2023/09/04 07:03:36;;;;;;;24.50;12.02;;;;;;;17.38;91.49;102713.97;6063007;19;20133;-73
2023/09/04 07:05:41;;;;;;;19.73;10.60;;;;;;;17.43;90.93;102712.91;6066665;19;20098;-71
2023/09/04 07:07:47;;;;;;;22.55;11.90;;;;;;;17.41;91.29;102712.09;6059101;19;20019;-73
2023/09/04 07:09:53;;;;;;;20.13;10.93;;;;;;;17.45;91.11;102713.69;6068892;19;20203;-74
2023/09/04 07:12:00;;;;;;;19.85;10.68;;;;;;;17.67;90.12;102715.50;6061643;19;20081;-74
2023/09/04 07:14:05;;;;;;;16.50;9.93;;;;;;;17.63;90.10;102713.88;6063975;19;20141;-71
2023/09/04 07:16:14;;;;;;;19.33;10.50;;;;;;;17.68;89.07;102714.56;6058496;19;20365;-73
2023/09/04 07:18:38;;;;;;;27.75;11.90;;;;;;;17.73;88.70;102709.94;6054260;19;20003;-71
2023/09/04 07:20:44;;;;;;;22.23;10.65;;;;;;;17.77;88.56;102711.53;6060036;19;20187;-72
2023/09/04 07:22:51;;;;;;;18.38;10.85;;;;;;;17.88;87.15;102703.16;6061619;19;20188;-72
2023/09/04 07:25:09;;;;;;;18.85;10.70;;;;;;;17.88;88.06;102704.03;6063476;19;20078;-73
2023/09/04 07:27:19;;;;;;;19.60;10.50;;;;;;;17.88;87.61;102704.03;6067095;19;20006;-71
2023/09/04 07:29:24;;;;;;;20.08;10.82;;;;;;;17.97;87.70;102702.75;6068184;19;20649;-72
2023/09/04 07:31:30;;;;;;;20.33;11.40;;;;;;;18.10;87.08;102703.09;6068449;19;20014;-73
2023/09/04 07:33:35;;;;;;;17.35;10.32;;;;;;;18.07;86.41;102692.59;6061462;19;20467;-72
2023/09/04 07:35:44;;;;;;;17.75;10.40;;;;;;;18.18;86.08;102695.66;6062387;19;20014;-73
2023/09/04 07:37:55;;;;;;;20.90;10.55;;;;;;;18.19;85.64;102698.28;6062334;19;20010;-73
2023/09/04 07:40:02;;;;;;;17.38;9.60;;;;;;;18.21;85.27;102698.19;6063836;19;20542;-72
2023/09/04 07:42:12;;;;;;;20.48;11.52;;;;;;;18.37;85.22;102701.91;6055802;19;20085;-71
2023/09/04 07:44:20;;;;;;;19.67;11.38;;;;;;;18.62;84.00;102701.69;6057847;19;20014;-72
2023/09/04 07:46:25;;;;;;;17.38;10.07;;;;;;;18.50;85.28;102701.38;6059766;19;20168;-72
2023/09/04 07:48:30;;;;;;;19.98;10.77;;;;;;;18.74;84.71;102705.59;6061479;19;20521;-71
2023/09/04 07:50:36;;;;;;;17.13;9.98;;;;;;;18.77;84.06;102708.19;6060329;19;20286;-71
2023/09/04 07:52:45;;;;;;;18.67;10.60;;;;;;;18.48;84.49;102708.56;6058630;19;20773;-73
2023/09/04 07:54:50;;;;;;;20.65;10.75;;;;;;;18.51;85.13;102703.09;6063812;19;20301;-70
2023/09/04 07:56:56;;;;;;;20.42;10.98;;;;;;;18.88;83.90;102709.47;6068746;19;20604;-70
2023/09/04 07:59:01;;;;;;;19.58;10.65;;;;;;;18.86;83.16;102710.41;6066380;19;20450;-72
2023/09/04 08:01:14;;;;;;;17.42;10.02;;;;;;;19.13;82.86;102723.38;6067500;19;20288;-71
2023/09/04 08:03:20;;;;;;;18.13;10.20;;;;;;;19.18;81.89;102720.53;6067397;19;20042;-71
2023/09/04 08:05:25;;;;;;;16.75;9.85;;;;;;;19.37;82.03;102717.84;6069266;19;20007;-72
2023/09/04 08:07:30;;;;;;;21.10;10.90;;;;;;;19.36;81.19;102727.66;6063619;19;20019;-73
2023/09/04 08:09:38;;;;;;;17.42;10.18;;;;;;;19.42;81.19;102729.16;6060484;19;20224;-73
2023/09/04 08:11:43;;;;;;;19.17;11.38;;;;;;;19.48;81.35;102731.50;6066466;19;20038;-71
2023/09/04 08:13:49;;;;;;;18.42;10.43;;;;;;;19.62;80.87;102734.41;6057157;19;20045;-72
2023/09/04 08:15:54;;;;;;;19.65;10.55;;;;;;;19.65;80.76;102731.56;6057548;19;20093;-71
2023/09/04 08:18:02;;;;;;;17.80;9.73;;;;;;;19.70;80.63;102729.59;6063432;19;20453;-71
2023/09/04 08:20:10;;;;;;;19.73;10.23;;;;;;;19.98;79.55;102728.19;6051582;19;20011;-71
2023/09/04 08:22:15;;;;;;;17.08;9.80;;;;;;;19.98;79.38;102728.19;6046118;19;20007;-70
2023/09/04 08:24:20;;;;;;;18.60;9.95;;;;;;;20.20;79.46;102717.31;6048075;19;20478;-71
2023/09/04 08:26:25;;;;;;;17.95;10.15;;;;;;;20.22;78.17;102730.56;6049578;19;20372;-71
2023/09/04 08:28:30;;;;;;;19.08;11.20;;;;;;;20.12;78.71;102727.53;6054091;19;20743;-72
2023/09/04 08:30:36;;;;;;;19.10;11.23;;;;;;;20.12;79.49;102719.53;6056774;19;20010;-71
2023/09/04 08:32:41;;;;;;;19.90;10.38;;;;;;;20.26;79.02;102717.00;6059124;19;20279;-71
2023/09/04 08:34:52;;;;;;;18.52;11.13;;;;;;;20.42;78.76;102722.41;6050085;19;20649;-71
2023/09/04 08:36:58;;;;;;;20.02;10.77;;;;;;;20.37;78.41;102713.75;6052726;19;20673;-71
2023/09/04 08:39:03;;;;;;;21.85;11.27;;;;;;;20.38;79.49;102718.19;6048486;19;20395;-71
2023/09/04 08:41:11;;;;;;;18.80;9.98;;;;;;;20.50;77.91;102722.84;6050994;19;20191;-71
2023/09/04 08:43:18;;;;;;;19.55;10.88;;;;;;;20.66;77.68;102714.06;6049421;19;20368;-72
2023/09/04 08:45:24;;;;;;;21.95;10.70;;;;;;;20.70;77.11;102715.66;6047187;19;20693;-72
2023/09/04 08:47:30;;;;;;;17.48;11.20;;;;;;;20.62;77.59;102713.38;6049537;19;20011;-72
2023/09/04 08:49:37;;;;;;;18.45;10.50;;;;;;;20.75;77.17;102709.09;6045676;19;20034;-72
2023/09/04 08:51:47;;;;;;;19.50;10.77;;;;;;;20.56;77.37;102698.56;6061235;19;20456;-70
2023/09/04 08:53:52;;;;;;;23.30;12.05;;;;;;;20.70;77.14;102699.63;6049793;19;20489;-70
2023/09/04 08:55:58;;;;;;;21.20;11.88;;;;;;;20.69;76.88;102698.72;6046814;19;20418;-70
2023/09/04 08:58:04;;;;;;;20.38;11.25;;;;;;;20.66;76.97;102698.91;6057281;19;20014;-70
2023/09/04 09:00:12;;;;;;;19.67;11.75;;;;;;;20.82;77.39;102688.25;6055337;19;20392;-72
2023/09/04 09:02:19;;;;;;;20.25;12.40;;;;;;;21.02;76.58;102690.69;6055066;19;20261;-72
2023/09/04 09:04:24;;;;;;;17.35;10.88;;;;;;;21.07;76.63;102700.28;6052942;19;20183;-70
2023/09/04 09:06:30;;;;;;;19.98;12.13;;;;;;;21.21;75.85;102701.22;6049114;19;20030;-70
2023/09/04 09:08:38;;;;;;;22.83;11.75;;;;;;;21.39;75.50;102696.69;6065996;19;20014;-70
2023/09/04 09:10:45;;;;;;;19.15;10.38;;;;;;;21.44;75.59;102685.72;6047978;19;20428;-70
2023/09/04 09:12:51;;;;;;;19.10;10.95;;;;;;;21.50;75.32;102685.38;6053212;19;20006;-70
2023/09/04 09:14:59;;;;;;;19.77;11.13;;;;;;;21.40;75.79;102693.03;6060247;19;20012;-70
2023/09/04 09:17:07;;;;;;;18.95;11.48;;;;;;;21.43;75.83;102684.88;6050372;19;20629;-70
2023/09/04 09:19:17;;;;;;;17.58;11.40;;;;;;;21.54;75.40;102680.69;6060320;19;20106;-71
2023/09/04 09:21:30;;;;;;;18.45;10.60;;;;;;;21.77;75.16;102676.69;6056881;19;20041;-70
2023/09/04 09:23:40;;;;;;;20.15;11.23;;;;;;;21.87;74.47;102673.38;6057316;19;20046;-71
2023/09/04 09:25:59;;;;;;;17.58;10.30;;;;;;;21.95;74.50;102672.06;6057282;19;20011;-71
2023/09/04 09:28:04;;;;;;;19.48;10.65;;;;;;;22.17;74.05;102674.31;6055072;19;20511;-72
2023/09/04 09:30:13;;;;;;;19.38;11.75;;;;;;;22.33;73.23;102675.16;6063295;19;20198;-71
2023/09/04 09:32:20;;;;;;;19.08;11.90;;;;;;;22.35;73.17;102675.91;6056414;19;20705;-72
2023/09/04 09:34:25;;;;;;;20.08;11.30;;;;;;;22.45;72.14;102676.19;6057666;19;20467;-72
2023/09/04 09:36:28;;;;;;;17.05;11.35;;;;;;;22.53;72.17;102677.44;6066011;19;20475;-72